Time;durP1;ratioP1;P1;durP2;ratioP2;P2;SDS_P1;SDS_P2;PMS_P1;PMS_P2;Temp;Humidity;BMP_temperature;BMP_pressure;BME280_temperature;BME280_humidity;BME280_pressure;Samples;Min_cycle;Max_cycle;Signal;HPM_P1;HPM_P2
2022/11/13 00:02:49;;;;;;;222.67;52.87;;;;;;;;;;6180185;28;20442;-77
2022/11/13 00:06:02;;;;;;;230.15;55.05;;;;;;;;;;6197822;28;20286;-76
2022/11/13 00:09:02;;;;;;;227.63;55.10;;;;;;;;;;6190364;28;20293;-76
2022/11/13 00:12:02;;;;;;;243.65;51.13;;;;;;;;;;6180079;28;20402;-76
2022/11/13 00:15:03;;;;;;;222.87;49.87;;;;;;;;;;6178821;28;20064;-76
2022/11/13 00:18:03;;;;;;;209.35;42.35;;;;;;;;;;6196493;28;20030;-76
2022/11/13 00:21:05;;;;;;;200.70;43.13;;;;;;;;;;6196515;28;20037;-76
2022/11/13 00:24:05;;;;;;;192.93;41.75;;;;;;;;;;6197524;28;20089;-77
2022/11/13 00:27:05;;;;;;;192.10;40.47;;;;;;;;;;6197183;28;20027;-77
2022/11/13 00:30:06;;;;;;;194.15;39.60;;;;;;;;;;6198050;28;20022;-77
2022/11/13 00:33:06;;;;;;;138.87;33.93;;;;;;;;;;6192129;28;20415;-77
2022/11/13 00:36:14;;;;;;;161.82;35.42;;;;;;;;;;6181393;28;20109;-77
2022/11/13 00:39:14;;;;;;;155.75;36.38;;;;;;;;;;6175569;28;20026;-76
2022/11/13 00:42:14;;;;;;;161.45;32.33;;;;;;;;;;6196503;28;20112;-77
2022/11/13 00:45:14;;;;;;;165.63;36.08;;;;;;;;;;6197169;28;20273;-76
2022/11/13 00:48:15;;;;;;;184.73;39.30;;;;;;;;;;6179687;28;20027;-76
2022/11/13 00:51:15;;;;;;;178.40;39.57;;;;;;;;;;6196423;28;20041;-77
2022/11/13 00:54:15;;;;;;;182.57;39.60;;;;;;;;;;6196722;28;20029;-77
2022/11/13 00:57:15;;;;;;;145.13;35.53;;;;;;;;;;6197309;28;20054;-77
2022/11/13 01:00:16;;;;;;;126.83;40.97;;;;;;;;;;6197283;28;20285;-77
2022/11/13 01:03:16;;;;;;;149.93;39.83;;;;;;;;;;6199189;28;20292;-77
2022/11/13 01:06:18;;;;;;;150.57;35.40;;;;;;;;;;6200015;28;20057;-77
2022/11/13 01:09:18;;;;;;;148.35;34.90;;;;;;;;;;6178082;28;20093;-76
2022/11/13 01:12:18;;;;;;;159.75;39.55;;;;;;;;;;6183774;28;20037;-76
2022/11/13 01:15:18;;;;;;;174.57;35.65;;;;;;;;;;6199500;28;20371;-77
2022/11/13 01:18:18;;;;;;;152.50;36.50;;;;;;;;;;6200469;28;20556;-77
2022/11/13 01:21:23;;;;;;;173.15;34.78;;;;;;;;;;6199345;28;20501;-77
2022/11/13 01:24:23;;;;;;;184.95;35.45;;;;;;;;;;6183307;28;20027;-77
2022/11/13 01:27:23;;;;;;;170.98;33.83;;;;;;;;;;6181856;28;20086;-77
2022/11/13 01:30:23;;;;;;;211.93;39.50;;;;;;;;;;6201490;28;20118;-77
2022/11/13 01:33:24;;;;;;;154.38;38.15;;;;;;;;;;6183091;28;20030;-77
2022/11/13 01:36:25;;;;;;;188.55;43.95;;;;;;;;;;6201484;28;20485;-77
2022/11/13 01:39:26;;;;;;;161.52;41.08;;;;;;;;;;6201718;28;20105;-77
2022/11/13 01:42:26;;;;;;;156.20;38.93;;;;;;;;;;6199779;28;20394;-77
2022/11/13 01:45:45;;;;;;;161.60;42.60;;;;;;;;;;6200194;28;20733;-77
2022/11/13 01:49:05;;;;;;;142.68;43.40;;;;;;;;;;6194902;28;20502;-77
2022/11/13 01:52:08;;;;;;;118.40;40.88;;;;;;;;;;6181422;28;20027;-77
2022/11/13 01:55:11;;;;;;;151.00;41.60;;;;;;;;;;6181689;28;20042;-77
2022/11/13 01:58:12;;;;;;;146.32;39.33;;;;;;;;;;6201049;28;20014;-77
2022/11/13 02:01:12;;;;;;;157.68;42.08;;;;;;;;;;6199574;28;20019;-77
2022/11/13 02:04:12;;;;;;;184.05;40.15;;;;;;;;;;6200611;28;20090;-77
2022/11/13 02:07:13;;;;;;;188.97;43.47;;;;;;;;;;6182523;28;20106;-77
2022/11/13 02:10:15;;;;;;;193.65;38.92;;;;;;;;;;6201245;28;20062;-77
2022/11/13 02:13:15;;;;;;;216.07;44.97;;;;;;;;;;6181526;28;20084;-77
2022/11/13 02:16:16;;;;;;;249.93;38.55;;;;;;;;;;6199448;28;20022;-77
2022/11/13 02:19:25;;;;;;;224.05;42.45;;;;;;;;;;6182006;28;20052;-76
2022/11/13 02:22:37;;;;;;;247.60;40.97;;;;;;;;;;6199831;28;20029;-77
2022/11/13 02:25:37;;;;;;;;;;;;;;;;;;6201224;28;20014;-77
2022/11/13 02:28:37;;;;;;;173.00;38.13;;;;;;;;;;6197514;28;19916;-77
2022/11/13 02:31:38;;;;;;;141.57;36.17;;;;;;;;;;6199842;28;20026;-77
2022/11/13 02:34:38;;;;;;;175.67;37.73;;;;;;;;;;6199538;28;20014;-77
2022/11/13 02:37:40;;;;;;;139.90;34.45;;;;;;;;;;6182578;28;20026;-77
2022/11/13 02:40:40;;;;;;;164.95;36.95;;;;;;;;;;6180858;28;20029;-77
2022/11/13 02:43:40;;;;;;;178.50;42.17;;;;;;;;;;6200168;28;20026;-77
2022/11/13 02:46:40;;;;;;;178.32;38.22;;;;;;;;;;6199831;28;20018;-77
2022/11/13 02:49:40;;;;;;;185.65;40.78;;;;;;;;;;6199924;28;20526;-77
2022/11/13 02:52:41;;;;;;;184.95;37.70;;;;;;;;;;6198810;28;20496;-77
2022/11/13 02:55:41;;;;;;;146.23;30.87;;;;;;;;;;6199804;28;20022;-77
2022/11/13 02:58:41;;;;;;;169.13;35.03;;;;;;;;;;6182089;28;20022;-77
2022/11/13 03:01:41;;;;;;;166.90;40.70;;;;;;;;;;6184314;28;20026;-77
2022/11/13 03:04:42;;;;;;;179.10;35.95;;;;;;;;;;6198043;28;20507;-77
2022/11/13 03:07:42;;;;;;;177.70;38.63;;;;;;;;;;6181166;28;20037;-77
2022/11/13 03:10:42;;;;;;;164.55;39.75;;;;;;;;;;6180938;28;20026;-77
2022/11/13 03:13:42;;;;;;;151.10;41.13;;;;;;;;;;6198054;28;20102;-77
2022/11/13 03:16:43;;;;;;;168.07;43.00;;;;;;;;;;6180662;28;20122;-77
2022/11/13 03:19:43;;;;;;;188.38;40.72;;;;;;;;;;6198195;28;20014;-77
2022/11/13 03:22:43;;;;;;;150.05;41.65;;;;;;;;;;6180572;28;20029;-77
2022/11/13 03:25:43;;;;;;;150.07;42.07;;;;;;;;;;6198243;28;20097;-77
2022/11/13 03:28:44;;;;;;;133.48;41.67;;;;;;;;;;6198330;28;20026;-77
2022/11/13 03:31:44;;;;;;;143.18;43.65;;;;;;;;;;6178714;28;20268;-76
2022/11/13 03:34:44;;;;;;;129.83;39.70;;;;;;;;;;6198460;28;20023;-76
2022/11/13 03:37:44;;;;;;;136.48;43.17;;;;;;;;;;6199581;28;20269;-76
2022/11/13 03:40:44;;;;;;;132.93;40.88;;;;;;;;;;6197472;28;20320;-76
2022/11/13 03:43:45;;;;;;;144.77;40.72;;;;;;;;;;6197812;28;20634;-76
2022/11/13 03:46:45;;;;;;;128.52;38.65;;;;;;;;;;6198286;28;20018;-77
2022/11/13 03:49:45;;;;;;;111.63;37.72;;;;;;;;;;6197268;28;20026;-77
2022/11/13 03:52:45;;;;;;;126.70;40.65;;;;;;;;;;6197315;28;20057;-77
2022/11/13 03:55:46;;;;;;;124.82;40.88;;;;;;;;;;6198051;28;20380;-77
2022/11/13 03:58:46;;;;;;;135.48;42.28;;;;;;;;;;6198702;28;20254;-77
2022/11/13 04:01:46;;;;;;;136.60;39.60;;;;;;;;;;6196210;28;20030;-77
2022/11/13 04:04:46;;;;;;;139.68;39.15;;;;;;;;;;6196502;28;20042;-77
2022/11/13 04:07:47;;;;;;;139.02;40.42;;;;;;;;;;6195165;28;20301;-77
2022/11/13 04:10:47;;;;;;;156.73;43.15;;;;;;;;;;6196761;28;20101;-77
2022/11/13 04:13:47;;;;;;;128.67;38.70;;;;;;;;;;6196938;28;20010;-77
2022/11/13 04:16:47;;;;;;;143.20;41.60;;;;;;;;;;6196669;28;20024;-77
2022/11/13 04:19:47;;;;;;;138.63;39.38;;;;;;;;;;6196611;28;20026;-76
2022/11/13 04:22:48;;;;;;;134.93;36.50;;;;;;;;;;6196825;28;20026;-76
2022/11/13 04:25:48;;;;;;;147.38;39.13;;;;;;;;;;6197197;28;20014;-76
2022/11/13 04:28:48;;;;;;;153.45;35.60;;;;;;;;;;6196125;28;20390;-77
2022/11/13 04:31:48;;;;;;;164.18;38.10;;;;;;;;;;6196563;28;20026;-77
2022/11/13 04:34:48;;;;;;;141.30;37.43;;;;;;;;;;6179524;28;20096;-77
2022/11/13 04:37:48;;;;;;;174.98;39.17;;;;;;;;;;6201016;28;20892;-77
2022/11/13 04:40:50;;;;;;;158.57;38.67;;;;;;;;;;6200674;28;20033;-77
2022/11/13 04:43:50;;;;;;;207.25;40.80;;;;;;;;;;6184223;28;20013;-77
2022/11/13 04:46:51;;;;;;;180.25;37.67;;;;;;;;;;6202004;28;20529;-77
2022/11/13 04:49:52;;;;;;;158.95;33.75;;;;;;;;;;6201242;28;20064;-77
2022/11/13 04:52:52;;;;;;;179.30;37.57;;;;;;;;;;6201269;28;20018;-77
2022/11/13 04:55:52;;;;;;;182.38;36.63;;;;;;;;;;6202379;28;20034;-77
2022/11/13 04:58:52;;;;;;;138.27;36.47;;;;;;;;;;6201297;28;20018;-77
2022/11/13 05:01:54;;;;;;;168.60;39.97;;;;;;;;;;6201722;28;20026;-77
2022/11/13 05:04:54;;;;;;;163.07;36.92;;;;;;;;;;6202429;28;20070;-78
2022/11/13 05:07:54;;;;;;;165.60;35.80;;;;;;;;;;6202191;28;20373;-77
2022/11/13 05:10:55;;;;;;;145.70;36.50;;;;;;;;;;6200589;28;21243;-77
2022/11/13 05:13:55;;;;;;;165.73;37.80;;;;;;;;;;6201770;28;20261;-77
2022/11/13 05:16:55;;;;;;;162.10;32.45;;;;;;;;;;6201778;28;20269;-77
2022/11/13 05:19:55;;;;;;;155.70;36.88;;;;;;;;;;6183191;28;20018;-77
2022/11/13 05:22:55;;;;;;;166.10;37.38;;;;;;;;;;6200801;28;20125;-76
2022/11/13 05:26:06;;;;;;;133.95;35.25;;;;;;;;;;6201870;28;20025;-76
2022/11/13 05:29:06;;;;;;;177.15;51.63;;;;;;;;;;6200620;28;20319;-76
2022/11/13 05:32:07;;;;;;;169.40;47.30;;;;;;;;;;6200098;28;20045;-76
2022/11/13 05:35:07;;;;;;;142.77;40.30;;;;;;;;;;6183255;28;20253;-76
2022/11/13 05:38:07;;;;;;;135.45;40.13;;;;;;;;;;6201159;28;20621;-76
2022/11/13 05:41:15;;;;;;;147.05;38.50;;;;;;;;;;6198034;28;20022;-77
2022/11/13 05:44:15;;;;;;;148.52;39.35;;;;;;;;;;6198376;28;20137;-77
2022/11/13 05:47:15;;;;;;;120.55;35.25;;;;;;;;;;6198495;28;20378;-77
2022/11/13 05:50:15;;;;;;;130.98;39.45;;;;;;;;;;6183085;28;20773;-77
2022/11/13 05:53:15;;;;;;;134.37;39.70;;;;;;;;;;6181490;28;20018;-77
2022/11/13 05:56:20;;;;;;;104.20;33.00;;;;;;;;;;6200413;28;20026;-77
2022/11/13 05:59:20;;;;;;;106.82;30.27;;;;;;;;;;6199634;28;20018;-77
2022/11/13 06:02:20;;;;;;;124.30;36.25;;;;;;;;;;6198215;28;20441;-77
2022/11/13 06:05:20;;;;;;;111.93;29.87;;;;;;;;;;6198916;28;20289;-77
2022/11/13 06:08:21;;;;;;;121.67;32.87;;;;;;;;;;6199668;28;20014;-77
2022/11/13 06:11:22;;;;;;;127.38;32.05;;;;;;;;;;6199233;28;20022;-77
2022/11/13 06:14:22;;;;;;;130.27;32.38;;;;;;;;;;6199260;28;20022;-77
2022/11/13 06:17:22;;;;;;;130.02;30.83;;;;;;;;;;6200090;28;20046;-77
2022/11/13 06:20:23;;;;;;;145.73;34.47;;;;;;;;;;6199024;28;20014;-77
2022/11/13 06:23:23;;;;;;;114.93;30.67;;;;;;;;;;6197720;28;20439;-77
2022/11/13 06:26:24;;;;;;;178.43;44.17;;;;;;;;;;6197626;28;20454;-77
2022/11/13 06:29:24;;;;;;;240.15;76.30;;;;;;;;;;6198813;28;20029;-77
2022/11/13 06:32:25;;;;;;;138.68;42.60;;;;;;;;;;6199949;28;20018;-77
2022/11/13 06:35:25;;;;;;;142.30;33.53;;;;;;;;;;6180351;28;20066;-77
2022/11/13 06:38:25;;;;;;;125.33;31.23;;;;;;;;;;6197849;28;19998;-78
2022/11/13 06:41:28;;;;;;;144.55;33.80;;;;;;;;;;6197888;28;20106;-77
2022/11/13 06:44:28;;;;;;;144.77;32.97;;;;;;;;;;6198767;28;20443;-77
2022/11/13 06:47:28;;;;;;;137.63;30.08;;;;;;;;;;6197304;28;20015;-77
2022/11/13 06:50:29;;;;;;;146.40;33.70;;;;;;;;;;6193973;28;20268;-77
2022/11/13 06:53:30;;;;;;;136.95;32.15;;;;;;;;;;6192824;28;20272;-77
2022/11/13 06:56:30;;;;;;;128.20;33.77;;;;;;;;;;6194931;28;20494;-77
2022/11/13 06:59:30;;;;;;;128.93;32.87;;;;;;;;;;6177294;28;20021;-78
2022/11/13 07:02:30;;;;;;;126.72;30.77;;;;;;;;;;6175987;28;20034;-78
2022/11/13 07:05:30;;;;;;;112.93;32.23;;;;;;;;;;6197492;28;20395;-78
2022/11/13 07:08:31;;;;;;;160.73;41.03;;;;;;;;;;6196032;28;20086;-80
2022/11/13 07:11:31;;;;;;;84.90;26.55;;;;;;;;;;6179696;28;20026;-78
2022/11/13 07:14:31;;;;;;;80.13;24.93;;;;;;;;;;6198159;28;20049;-78
2022/11/13 07:17:32;;;;;;;92.60;26.98;;;;;;;;;;6195969;28;20030;-78
2022/11/13 07:20:32;;;;;;;71.27;23.03;;;;;;;;;;6198258;28;20057;-78
2022/11/13 07:23:33;;;;;;;76.80;25.27;;;;;;;;;;6196723;28;20076;-78
2022/11/13 07:26:33;;;;;;;83.65;23.17;;;;;;;;;;6180427;28;20382;-77
2022/11/13 07:29:35;;;;;;;68.27;21.40;;;;;;;;;;6198562;28;20026;-77
2022/11/13 07:32:35;;;;;;;76.30;23.15;;;;;;;;;;6198205;28;20031;-78
2022/11/13 07:35:35;;;;;;;89.13;27.45;;;;;;;;;;6196217;28;20023;-78
2022/11/13 07:38:35;;;;;;;68.63;21.10;;;;;;;;;;6195808;28;20065;-78
2022/11/13 07:41:36;;;;;;;72.68;22.35;;;;;;;;;;6178259;28;20449;-77
2022/11/13 07:44:36;;;;;;;76.54;24.92;;;;;;;;;;6198063;28;20385;-77
2022/11/13 07:47:36;;;;;;;65.03;23.58;;;;;;;;;;6179523;28;20026;-77
2022/11/13 07:50:37;;;;;;;60.63;23.97;;;;;;;;;;6198673;28;20034;-77
2022/11/13 07:53:37;;;;;;;65.43;27.75;;;;;;;;;;6194528;28;20261;-77
2022/11/13 07:56:38;;;;;;;71.83;25.90;;;;;;;;;;6176937;28;20029;-77
2022/11/13 07:59:38;;;;;;;68.97;27.83;;;;;;;;;;6194317;28;20026;-78
2022/11/13 08:02:38;;;;;;;67.10;25.27;;;;;;;;;;6179413;28;20022;-78
2022/11/13 08:05:39;;;;;;;55.83;24.90;;;;;;;;;;6195514;28;20038;-77
2022/11/13 08:08:39;;;;;;;73.05;28.73;;;;;;;;;;6197600;28;20022;-77
2022/11/13 08:11:39;;;;;;;68.60;27.80;;;;;;;;;;6196214;28;20034;-77
2022/11/13 08:14:39;;;;;;;61.53;23.88;;;;;;;;;;6195465;28;20363;-78
2022/11/13 08:17:40;;;;;;;50.70;24.15;;;;;;;;;;6194680;28;20076;-78
2022/11/13 08:20:40;;;;;;;58.45;25.40;;;;;;;;;;6178654;28;20058;-78
2022/11/13 08:23:41;;;;;;;53.97;24.43;;;;;;;;;;6195842;28;20018;-78
2022/11/13 08:26:41;;;;;;;52.15;21.40;;;;;;;;;;6197421;28;20010;-78
2022/11/13 08:29:41;;;;;;;63.37;23.40;;;;;;;;;;6198134;28;20014;-78
2022/11/13 08:32:42;;;;;;;55.75;25.10;;;;;;;;;;6195100;28;20019;-78
2022/11/13 08:35:50;;;;;;;50.80;22.95;;;;;;;;;;6196740;28;20073;-78
2022/11/13 08:38:50;;;;;;;55.28;23.90;;;;;;;;;;6195435;28;20378;-77
2022/11/13 08:41:50;;;;;;;56.47;26.45;;;;;;;;;;6197238;28;20029;-78
2022/11/13 08:44:50;;;;;;;62.60;25.27;;;;;;;;;;6176478;28;20034;-78
2022/11/13 08:47:51;;;;;;;56.67;27.77;;;;;;;;;;6195593;28;20098;-77
2022/11/13 08:50:55;;;;;;;55.17;23.67;;;;;;;;;;6179655;28;20018;-77
2022/11/13 08:53:55;;;;;;;54.95;25.77;;;;;;;;;;6197174;28;20058;-76
2022/11/13 08:56:55;;;;;;;54.13;24.88;;;;;;;;;;6195520;28;20030;-77
2022/11/13 08:59:55;;;;;;;45.45;23.25;;;;;;;;;;6196523;28;20285;-76
2022/11/13 09:02:56;;;;;;;52.95;26.05;;;;;;;;;;6195737;28;20105;-76
2022/11/13 09:05:56;;;;;;;48.93;25.80;;;;;;;;;;6170008;28;20046;-76
2022/11/13 09:08:57;;;;;;;55.38;27.55;;;;;;;;;;6171242;28;20502;-76
2022/11/13 09:11:57;;;;;;;56.17;24.37;;;;;;;;;;6171365;28;20022;-76
2022/11/13 09:14:57;;;;;;;55.83;23.58;;;;;;;;;;6173164;28;20073;-76
2022/11/13 09:17:58;;;;;;;49.97;24.52;;;;;;;;;;6171452;28;20785;-76
2022/11/13 09:21:01;;;;;;;52.90;26.17;;;;;;;;;;6172075;28;20105;-76
2022/11/13 09:24:02;;;;;;;52.47;24.00;;;;;;;;;;6176426;28;20019;-75
2022/11/13 09:27:02;;;;;;;52.13;25.05;;;;;;;;;;6174926;28;20030;-75
2022/11/13 09:30:02;;;;;;;54.85;28.73;;;;;;;;;;6176067;28;20534;-75
2022/11/13 09:33:03;;;;;;;46.87;24.50;;;;;;;;;;6175222;28;20019;-75
2022/11/13 09:36:09;;;;;;;58.08;30.85;;;;;;;;;;6176863;28;20026;-74
2022/11/13 09:39:09;;;;;;;48.03;23.42;;;;;;;;;;6175832;28;20023;-75
2022/11/13 09:42:14;;;;;;;47.38;22.40;;;;;;;;;;6176989;28;20019;-75
2022/11/13 09:45:15;;;;;;;56.45;25.67;;;;;;;;;;6175186;28;20033;-75
2022/11/13 09:48:38;;;;;;;48.25;24.02;;;;;;;;;;6173510;28;20023;-75
2022/11/13 09:51:39;;;;;;;40.70;21.77;;;;;;;;;;6178822;28;20031;-76
2022/11/13 09:54:39;;;;;;;48.23;26.50;;;;;;;;;;6175771;28;20029;-75
2022/11/13 09:57:50;;;;;;;49.65;26.58;;;;;;;;;;6174729;28;20324;-75
2022/11/13 10:00:50;;;;;;;53.13;26.85;;;;;;;;;;6172643;28;20121;-76
2022/11/13 10:03:55;;;;;;;52.95;26.48;;;;;;;;;;6174346;28;20023;-75
2022/11/13 10:07:17;;;;;;;48.15;25.10;;;;;;;;;;6195922;28;20062;-75
2022/11/13 10:10:17;;;;;;;51.75;23.88;;;;;;;;;;6196504;28;20410;-75
2022/11/13 10:13:24;;;;;;;55.00;27.05;;;;;;;;;;6198405;28;20525;-75
2022/11/13 10:16:36;;;;;;;52.95;25.70;;;;;;;;;;6182390;28;20420;-75
2022/11/13 10:19:41;;;;;;;53.50;26.83;;;;;;;;;;6198354;28;20014;-75
2022/11/13 10:23:14;;;;;;;57.97;26.80;;;;;;;;;;6198450;28;20030;-75
2022/11/13 10:26:15;;;;;;;53.42;27.23;;;;;;;;;;6139052;28;20057;-75
2022/11/13 10:29:17;;;;;;;44.92;23.55;;;;;;;;;;6197730;28;20026;-75
2022/11/13 10:32:22;;;;;;;53.22;26.98;;;;;;;;;;6197943;28;20057;-76
2022/11/13 10:35:37;;;;;;;45.40;24.92;;;;;;;;;;6197865;28;20054;-75
2022/11/13 10:38:41;;;;;;;47.00;23.85;;;;;;;;;;6198186;28;20026;-75
2022/11/13 10:41:45;;;;;;;43.90;24.33;;;;;;;;;;6181331;28;20026;-75
2022/11/13 10:44:52;;;;;;;45.20;24.88;;;;;;;;;;6192100;28;20030;-75
2022/11/13 10:47:53;;;;;;;53.65;26.98;;;;;;;;;;6196039;28;20033;-74
2022/11/13 10:50:54;;;;;;;49.15;23.85;;;;;;;;;;6195000;28;20050;-75
2022/11/13 10:53:56;;;;;;;49.17;25.02;;;;;;;;;;6197086;28;20858;-75
2022/11/13 10:57:00;;;;;;;47.60;22.25;;;;;;;;;;6197376;28;20570;-76
2022/11/13 11:00:00;;;;;;;55.50;26.75;;;;;;;;;;6192722;28;20030;-75
2022/11/13 11:03:01;;;;;;;55.15;30.60;;;;;;;;;;6197283;28;20034;-75
2022/11/13 11:06:02;;;;;;;54.55;28.58;;;;;;;;;;6179797;28;20037;-75
2022/11/13 11:09:23;;;;;;;50.45;25.13;;;;;;;;;;6197794;28;20041;-75
2022/11/13 11:12:24;;;;;;;47.08;24.88;;;;;;;;;;6197549;28;20471;-75
2022/11/13 11:15:44;;;;;;;45.07;23.37;;;;;;;;;;6196297;28;20030;-75
2022/11/13 11:18:52;;;;;;;45.90;23.00;;;;;;;;;;6193171;28;20041;-75
2022/11/13 11:21:57;;;;;;;56.30;30.88;;;;;;;;;;6179442;28;20023;-75
2022/11/13 11:25:10;;;;;;;45.20;25.45;;;;;;;;;;6197421;28;20011;-74
2022/11/13 11:28:14;;;;;;;49.42;26.95;;;;;;;;;;6197855;28;20855;-75
2022/11/13 11:31:33;;;;;;;50.72;24.75;;;;;;;;;;6179767;28;20044;-75
2022/11/13 11:34:59;;;;;;;47.75;26.75;;;;;;;;;;6179475;28;20368;-74
2022/11/13 11:38:03;;;;;;;53.45;26.65;;;;;;;;;;6177098;28;20030;-75
2022/11/13 11:41:12;;;;;;;55.85;28.80;;;;;;;;;;6196819;28;20105;-75
2022/11/13 11:44:27;;;;;;;50.78;26.45;;;;;;;;;;6193576;28;20359;-75
2022/11/13 11:47:27;;;;;;;51.40;27.77;;;;;;;;;;6196208;28;20021;-75
2022/11/13 11:50:40;;;;;;;54.33;30.70;;;;;;;;;;6197039;28;20022;-75
2022/11/13 11:53:48;;;;;;;42.75;23.60;;;;;;;;;;6196351;28;20029;-75
2022/11/13 11:56:51;;;;;;;53.30;28.45;;;;;;;;;;6195927;28;20141;-74
2022/11/13 12:00:00;;;;;;;47.25;25.95;;;;;;;;;;6179336;28;20073;-75
2022/11/13 12:03:17;;;;;;;45.38;25.52;;;;;;;;;;6192589;28;20018;-75
2022/11/13 12:06:31;;;;;;;47.63;29.95;;;;;;;;;;6192203;28;20076;-75
2022/11/13 12:09:37;;;;;;;56.30;29.25;;;;;;;;;;6194230;28;20019;-75
2022/11/13 12:12:43;;;;;;;54.97;29.33;;;;;;;;;;6197540;28;20018;-75
2022/11/13 12:15:55;;;;;;;50.78;28.05;;;;;;;;;;6175716;28;20065;-75
2022/11/13 12:19:10;;;;;;;53.58;30.10;;;;;;;;;;6195212;28;20022;-75
2022/11/13 12:22:29;;;;;;;49.45;28.38;;;;;;;;;;6196071;28;20554;-75
2022/11/13 12:25:43;;;;;;;60.03;32.88;;;;;;;;;;6179036;28;20010;-75
2022/11/13 12:28:43;;;;;;;51.15;28.65;;;;;;;;;;6196001;28;20153;-75
2022/11/13 12:31:52;;;;;;;51.03;29.00;;;;;;;;;;6196295;28;20034;-75
2022/11/13 12:34:55;;;;;;;45.92;25.35;;;;;;;;;;6196115;28;20030;-75
2022/11/13 12:38:11;;;;;;;43.25;26.45;;;;;;;;;;6177817;28;20065;-75
2022/11/13 12:41:38;;;;;;;44.65;26.52;;;;;;;;;;6193611;28;20441;-75
2022/11/13 12:44:43;;;;;;;46.75;27.70;;;;;;;;;;6191699;28;20399;-75
2022/11/13 12:47:44;;;;;;;46.15;26.40;;;;;;;;;;6177436;28;20061;-74
2022/11/13 12:50:55;;;;;;;47.23;26.83;;;;;;;;;;6194238;28;20056;-75
2022/11/13 12:53:56;;;;;;;53.67;31.20;;;;;;;;;;6179003;28;20041;-74
2022/11/13 12:57:11;;;;;;;49.47;30.33;;;;;;;;;;6198973;28;20076;-74
2022/11/13 13:00:22;;;;;;;51.13;29.98;;;;;;;;;;6199551;28;20541;-74
2022/11/13 13:03:42;;;;;;;51.22;29.50;;;;;;;;;;6181420;28;20032;-74
2022/11/13 13:06:56;;;;;;;64.97;33.90;;;;;;;;;;6199236;28;20038;-74
2022/11/13 13:10:12;;;;;;;61.35;34.78;;;;;;;;;;6200158;28;20029;-75
2022/11/13 13:13:19;;;;;;;59.72;36.58;;;;;;;;;;6182651;28;20030;-74
2022/11/13 13:16:21;;;;;;;59.70;36.65;;;;;;;;;;6183312;28;20010;-75
2022/11/13 13:19:29;;;;;;;58.65;33.92;;;;;;;;;;6183922;28;20010;-74
2022/11/13 13:22:33;;;;;;;54.75;34.45;;;;;;;;;;6201133;28;20057;-75
2022/11/13 13:25:34;;;;;;;61.97;34.95;;;;;;;;;;6200427;28;20360;-74
2022/11/13 13:28:37;;;;;;;63.90;34.10;;;;;;;;;;6181670;28;20049;-74
2022/11/13 13:31:42;;;;;;;69.13;37.30;;;;;;;;;;6179058;28;20477;-74
2022/11/13 13:34:58;;;;;;;60.53;32.75;;;;;;;;;;6181311;28;20050;-74
2022/11/13 13:38:19;;;;;;;61.75;33.88;;;;;;;;;;6199826;28;20033;-75
2022/11/13 13:41:22;;;;;;;58.40;34.23;;;;;;;;;;6198046;28;20433;-75
2022/11/13 13:44:39;;;;;;;53.40;30.95;;;;;;;;;;6201295;28;20276;-75
2022/11/13 13:47:42;;;;;;;53.25;30.58;;;;;;;;;;6200180;28;20030;-75
2022/11/13 13:50:47;;;;;;;54.33;29.38;;;;;;;;;;6200326;28;20466;-75
2022/11/13 13:53:47;;;;;;;53.67;30.50;;;;;;;;;;6200500;28;20030;-75
2022/11/13 13:56:48;;;;;;;54.97;30.80;;;;;;;;;;6200752;28;20089;-75
2022/11/13 13:59:49;;;;;;;59.63;32.60;;;;;;;;;;6200675;28;20473;-75
2022/11/13 14:02:50;;;;;;;52.80;31.47;;;;;;;;;;6199942;28;20065;-75
2022/11/13 14:05:51;;;;;;;70.10;37.70;;;;;;;;;;6200586;28;20172;-75
2022/11/13 14:08:51;;;;;;;64.47;32.13;;;;;;;;;;6200505;28;20026;-75
2022/11/13 14:12:14;;;;;;;58.80;33.60;;;;;;;;;;6199831;28;20026;-75
2022/11/13 14:15:27;;;;;;;49.72;28.45;;;;;;;;;;6199324;28;20399;-75
2022/11/13 14:18:28;;;;;;;61.78;33.15;;;;;;;;;;6198620;28;20026;-74
2022/11/13 14:21:28;;;;;;;58.20;32.92;;;;;;;;;;6199817;28;20413;-75
2022/11/13 14:24:37;;;;;;;77.97;42.97;;;;;;;;;;6200358;28;20073;-75
2022/11/13 14:27:37;;;;;;;93.03;44.63;;;;;;;;;;6199939;28;20049;-75
2022/11/13 14:30:37;;;;;;;94.30;43.42;;;;;;;;;;6199334;28;20522;-75
2022/11/13 14:33:45;;;;;;;67.97;37.03;;;;;;;;;;6200126;28;20025;-74
2022/11/13 14:36:47;;;;;;;67.50;33.05;;;;;;;;;;6195412;28;20398;-75
2022/11/13 14:39:47;;;;;;;72.13;34.28;;;;;;;;;;6198613;28;20157;-74
2022/11/13 14:42:58;;;;;;;115.15;54.67;;;;;;;;;;6181170;28;20023;-74
2022/11/13 14:46:00;;;;;;;70.03;38.28;;;;;;;;;;6198329;28;20022;-74
2022/11/13 14:49:01;;;;;;;87.80;43.13;;;;;;;;;;6198336;28;20018;-74
2022/11/13 14:52:01;;;;;;;85.47;51.28;;;;;;;;;;6199015;28;20502;-75
2022/11/13 14:55:05;;;;;;;83.85;46.38;;;;;;;;;;6199078;28;20022;-74
2022/11/13 14:58:05;;;;;;;79.72;43.70;;;;;;;;;;6199132;28;20030;-74
2022/11/13 15:01:16;;;;;;;121.60;58.80;;;;;;;;;;6182197;28;20021;-74
2022/11/13 15:04:16;;;;;;;94.97;50.50;;;;;;;;;;6198498;28;20675;-75
2022/11/13 15:07:18;;;;;;;85.85;46.28;;;;;;;;;;6199090;28;20066;-75
2022/11/13 15:10:20;;;;;;;78.32;37.83;;;;;;;;;;6200213;28;20026;-76
2022/11/13 15:13:20;;;;;;;66.03;39.42;;;;;;;;;;6198108;28;20019;-75
2022/11/13 15:16:21;;;;;;;73.00;39.72;;;;;;;;;;6199609;28;20061;-76
2022/11/13 15:19:25;;;;;;;65.70;34.85;;;;;;;;;;6197288;28;20022;-75
2022/11/13 15:22:25;;;;;;;74.72;39.90;;;;;;;;;;6199226;28;20113;-75
2022/11/13 15:25:25;;;;;;;68.10;33.08;;;;;;;;;;6197909;28;20037;-75
2022/11/13 15:28:26;;;;;;;63.70;37.23;;;;;;;;;;6197978;28;20090;-74
2022/11/13 15:31:33;;;;;;;85.77;47.67;;;;;;;;;;6196647;28;20089;-75
2022/11/13 15:34:34;;;;;;;73.25;35.45;;;;;;;;;;6197259;28;20033;-75
2022/11/13 15:37:34;;;;;;;69.70;36.97;;;;;;;;;;6198437;28;20022;-75
2022/11/13 15:40:35;;;;;;;75.30;37.45;;;;;;;;;;6197902;28;20026;-75
2022/11/13 15:43:35;;;;;;;83.97;43.97;;;;;;;;;;6196758;28;20053;-75
2022/11/13 15:46:35;;;;;;;89.78;49.60;;;;;;;;;;6189707;28;20026;-76
2022/11/13 15:49:35;;;;;;;96.45;49.65;;;;;;;;;;6192411;28;20347;-74
2022/11/13 15:52:37;;;;;;;114.20;63.33;;;;;;;;;;6192383;28;20044;-75
2022/11/13 15:55:38;;;;;;;95.70;51.08;;;;;;;;;;6173435;28;20080;-75
2022/11/13 15:58:39;;;;;;;95.82;53.28;;;;;;;;;;6191933;28;20022;-75
2022/11/13 16:01:39;;;;;;;97.97;51.07;;;;;;;;;;6190950;28;20025;-75
2022/11/13 16:04:39;;;;;;;94.70;47.87;;;;;;;;;;6193798;28;20042;-76
2022/11/13 16:07:40;;;;;;;85.70;45.33;;;;;;;;;;6196801;28;20050;-75
2022/11/13 16:10:40;;;;;;;80.63;40.00;;;;;;;;;;6176688;28;20026;-76
2022/11/13 16:13:40;;;;;;;78.53;42.93;;;;;;;;;;6195085;28;20015;-75
2022/11/13 16:16:40;;;;;;;86.13;43.40;;;;;;;;;;6194998;28;20053;-75
2022/11/13 16:19:41;;;;;;;88.10;45.17;;;;;;;;;;6177902;28;20633;-75
2022/11/13 16:22:44;;;;;;;91.88;46.63;;;;;;;;;;6193567;28;20022;-75
2022/11/13 16:25:45;;;;;;;98.15;46.83;;;;;;;;;;6178582;28;20026;-76
2022/11/13 16:28:46;;;;;;;93.55;48.85;;;;;;;;;;6195894;28;20089;-75
2022/11/13 16:31:46;;;;;;;100.33;52.00;;;;;;;;;;6195971;28;20029;-75
2022/11/13 16:34:47;;;;;;;104.65;54.38;;;;;;;;;;6182475;28;20084;-75
2022/11/13 16:37:47;;;;;;;111.95;56.63;;;;;;;;;;6197087;28;20033;-75
2022/11/13 16:40:47;;;;;;;137.43;64.75;;;;;;;;;;6196433;28;20367;-76
2022/11/13 16:43:47;;;;;;;94.03;43.42;;;;;;;;;;6182072;28;20331;-75
2022/11/13 16:46:48;;;;;;;91.28;42.58;;;;;;;;;;6198862;28;20034;-76
2022/11/13 16:49:48;;;;;;;97.17;49.50;;;;;;;;;;6182013;28;20022;-76
2022/11/13 16:52:49;;;;;;;87.53;39.83;;;;;;;;;;6199269;28;20027;-76
2022/11/13 16:55:49;;;;;;;100.60;40.42;;;;;;;;;;6201686;28;20026;-75
2022/11/13 16:58:50;;;;;;;103.68;44.25;;;;;;;;;;6201733;28;20022;-75
2022/11/13 17:01:53;;;;;;;119.10;43.30;;;;;;;;;;6196904;28;20022;-75
2022/11/13 17:04:54;;;;;;;136.38;57.90;;;;;;;;;;6201086;28;20537;-75
2022/11/13 17:07:58;;;;;;;131.35;49.00;;;;;;;;;;6201476;28;20014;-76
2022/11/13 17:10:58;;;;;;;133.70;50.65;;;;;;;;;;6201381;28;20021;-76
2022/11/13 17:13:59;;;;;;;119.10;48.53;;;;;;;;;;6184195;28;20426;-76
2022/11/13 17:17:00;;;;;;;128.70;47.58;;;;;;;;;;6184020;28;20025;-75
2022/11/13 17:20:00;;;;;;;114.78;42.83;;;;;;;;;;6199695;28;20022;-75
2022/11/13 17:23:00;;;;;;;117.85;42.92;;;;;;;;;;6199756;28;20352;-75
2022/11/13 17:26:01;;;;;;;115.83;45.33;;;;;;;;;;6201017;28;20054;-75
2022/11/13 17:29:04;;;;;;;105.32;44.00;;;;;;;;;;6181714;28;20257;-75
2022/11/13 17:32:04;;;;;;;116.55;43.78;;;;;;;;;;6200359;28;20115;-75
2022/11/13 17:35:05;;;;;;;123.10;46.25;;;;;;;;;;6182932;28;20014;-76
2022/11/13 17:38:05;;;;;;;111.10;41.67;;;;;;;;;;6200932;28;20038;-76